createdAt,value
2022-10-04T00:02:34.132Z,83.30
2022-10-04T00:05:08.689Z,81.86
2022-10-04T00:07:45.725Z,82.89
2022-10-04T00:10:21.682Z,83.15
2022-10-04T00:12:56.115Z,83.56
2022-10-04T00:15:29.757Z,84.21
2022-10-04T00:18:18.636Z,83.86
2022-10-04T00:21:01.329Z,83.87
2022-10-04T00:23:43.071Z,84.37
2022-10-04T00:26:59.366Z,85.01
2022-10-04T00:29:33.780Z,84.57
2022-10-04T00:32:28.055Z,84.24
2022-10-04T00:34:59.671Z,83.71
2022-10-04T00:37:48.188Z,83.96
2022-10-04T00:40:21.394Z,83.73
2022-10-04T00:42:58.720Z,83.87
2022-10-04T00:45:34.037Z,83.38
2022-10-04T00:48:31.667Z,85.11
2022-10-04T00:51:14.303Z,85.40
2022-10-04T00:54:04.317Z,83.74
2022-10-04T00:56:43.587Z,82.79
2022-10-04T00:59:35.167Z,82.25
2022-10-04T01:02:13.237Z,82.74
2022-10-04T01:04:48.600Z,81.94
2022-10-04T01:07:28.729Z,82.78
2022-10-04T01:10:05.836Z,82.34
2022-10-04T01:12:49.387Z,82.66
2022-10-04T01:15:31.868Z,80.89
2022-10-04T01:18:12.869Z,80.83
2022-10-04T01:20:54.419Z,81.34
2022-10-04T01:23:44.296Z,81.69
2022-10-04T01:26:43.273Z,81.11
2022-10-04T01:29:16.694Z,81.35
2022-10-04T01:31:47.751Z,81.42
2022-10-04T01:34:18.648Z,81.50
2022-10-04T01:36:49.214Z,81.02
2022-10-04T01:39:21.824Z,82.04
2022-10-04T01:42:01.000Z,82.35
2022-10-04T01:44:38.548Z,81.86
2022-10-04T01:47:16.398Z,81.26
2022-10-04T01:49:47.330Z,81.21
2022-10-04T01:52:22.497Z,80.81
2022-10-04T01:55:03.246Z,79.95
2022-10-04T01:57:38.672Z,79.53
2022-10-04T02:00:10.337Z,80.57
2022-10-04T02:02:51.397Z,80.20
2022-10-04T02:05:30.589Z,80.15
2022-10-04T02:08:08.054Z,80.21
2022-10-04T02:10:43.413Z,80.20
2022-10-04T02:13:20.679Z,80.42
2022-10-04T02:15:50.403Z,80.57
2022-10-04T02:18:22.264Z,80.48
2022-10-04T02:20:55.138Z,80.86
2022-10-04T02:23:25.144Z,81.14
2022-10-04T02:25:56.148Z,81.26
2022-10-04T02:28:24.147Z,81.14
2022-10-04T02:31:12.511Z,81.45
2022-10-04T02:33:43.319Z,81.18
2022-10-04T02:36:13.197Z,81.81
2022-10-04T02:38:51.401Z,81.38
2022-10-04T02:41:29.646Z,81.32
2022-10-04T02:44:11.942Z,81.50
2022-10-04T02:46:51.283Z,80.73
2022-10-04T02:49:29.888Z,81.62
2022-10-04T02:52:07.482Z,81.32
2022-10-04T02:54:42.907Z,81.51
2022-10-04T02:57:19.537Z,80.86
2022-10-04T02:59:49.094Z,80.65
2022-10-04T03:02:29.907Z,80.04
2022-10-04T03:05:07.133Z,79.46
2022-10-04T03:07:38.127Z,79.72
2022-10-04T03:10:12.380Z,80.16
2022-10-04T03:12:46.904Z,79.88
2022-10-04T03:15:15.276Z,79.70
2022-10-04T03:17:44.645Z,79.55
2022-10-04T03:20:21.005Z,79.67
2022-10-04T03:22:55.578Z,79.95
2022-10-04T03:25:34.200Z,80.37
2022-10-04T03:28:05.152Z,82.10
2022-10-04T03:30:36.183Z,81.33
2022-10-04T03:33:06.204Z,82.34
2022-10-04T03:35:39.079Z,82.75
2022-10-04T03:38:12.387Z,82.91
2022-10-04T03:40:51.461Z,83.42
2022-10-04T03:43:26.581Z,81.79
2022-10-04T03:45:56.685Z,81.54
2022-10-04T03:48:34.135Z,82.58
2022-10-04T03:51:06.642Z,83.25
2022-10-04T03:53:43.464Z,83.51
2022-10-04T03:56:17.264Z,83.32
2022-10-04T03:58:49.931Z,83.72
2022-10-04T04:01:36.608Z,84.42
2022-10-04T04:04:18.066Z,85.15
2022-10-04T04:06:57.470Z,84.43
2022-10-04T04:09:41.164Z,85.37
2022-10-04T04:12:17.885Z,85.84
2022-10-04T04:14:52.019Z,84.34
2022-10-04T04:17:41.702Z,84.61
2022-10-04T04:20:33.851Z,86.07
2022-10-04T04:23:11.743Z,86.57
2022-10-04T04:25:44.375Z,85.40
2022-10-04T04:28:26.992Z,84.55
2022-10-04T04:31:04.505Z,85.52
2022-10-04T04:33:43.096Z,85.24
2022-10-04T04:36:14.833Z,84.02
2022-10-04T04:39:02.387Z,84.38
2022-10-04T04:41:37.396Z,85.35
2022-10-04T04:44:17.926Z,85.40
2022-10-04T04:46:47.899Z,84.82
2022-10-04T04:49:18.659Z,84.35
2022-10-04T04:51:51.743Z,83.90
2022-10-04T04:54:25.699Z,84.01
2022-10-04T04:56:59.419Z,83.49
2022-10-04T04:59:28.111Z,84.50
2022-10-04T05:01:57.550Z,84.09
2022-10-04T05:04:26.615Z,84.68
2022-10-04T05:07:06.220Z,85.23
2022-10-04T05:09:38.349Z,84.52
2022-10-04T05:12:16.419Z,86.13
2022-10-04T05:14:48.984Z,86.63
2022-10-04T05:17:23.937Z,86.45
2022-10-04T05:19:57.970Z,86.17
2022-10-04T05:22:28.447Z,87.66
2022-10-04T05:25:02.910Z,87.46
2022-10-04T05:27:37.792Z,87.93
2022-10-04T05:30:16.600Z,87.75
2022-10-04T05:32:59.851Z,87.99
2022-10-04T05:35:38.645Z,87.90
2022-10-04T05:38:16.811Z,86.95
2022-10-04T05:40:57.700Z,86.10
2022-10-04T05:43:35.324Z,85.30
2022-10-04T05:46:28.069Z,86.50
2022-10-04T05:49:05.174Z,86.48
2022-10-04T05:51:47.899Z,86.39
2022-10-04T05:54:22.577Z,86.84
2022-10-04T05:57:32.886Z,86.41
2022-10-04T06:00:13.812Z,85.92
2022-10-04T06:03:28.799Z,85.26
2022-10-04T06:06:05.727Z,85.27
2022-10-04T06:08:55.372Z,85.03
2022-10-04T06:12:01.179Z,84.64
2022-10-04T06:14:58.363Z,85.11
2022-10-04T06:17:51.112Z,84.97
2022-10-04T06:20:55.161Z,84.57
2022-10-04T06:23:31.786Z,85.80
2022-10-04T06:26:09.661Z,86.20
2022-10-04T06:28:44.588Z,86.09
2022-10-04T06:32:10.805Z,85.50
2022-10-04T06:35:00.228Z,85.30
2022-10-04T06:38:02.435Z,84.40
2022-10-04T06:41:05.063Z,84.94
2022-10-04T06:44:12.549Z,83.92
2022-10-04T06:46:49.776Z,83.14
2022-10-04T06:49:44.007Z,83.72
2022-10-04T06:52:46.393Z,82.89
2022-10-04T06:55:37.942Z,82.58
2022-10-04T06:58:33.646Z,81.55
2022-10-04T07:01:11.434Z,81.41
2022-10-04T07:03:51.837Z,81.41
2022-10-04T07:06:27.968Z,81.09
2022-10-04T07:09:03.183Z,80.59
2022-10-04T07:11:46.231Z,80.66
2022-10-04T07:14:20.476Z,79.71
2022-10-04T07:16:57.551Z,79.60
2022-10-04T07:19:36.988Z,78.78
2022-10-04T07:22:20.550Z,77.94
2022-10-04T07:25:12.593Z,78.14
2022-10-04T07:28:11.222Z,77.17
2022-10-04T07:30:49.265Z,76.86
2022-10-04T07:33:24.764Z,75.95
2022-10-04T07:36:04.798Z,75.08
2022-10-04T07:38:43.935Z,73.44
2022-10-04T07:41:25.427Z,73.78
2022-10-04T07:44:02.076Z,74.87
2022-10-04T07:46:49.876Z,73.29
2022-10-04T07:49:22.131Z,74.27
2022-10-04T07:52:07.915Z,73.26
2022-10-04T07:54:47.279Z,72.34
2022-10-04T07:57:25.153Z,72.52
2022-10-04T08:00:06.589Z,72.89
2022-10-04T08:03:06.117Z,74.22
2022-10-04T08:05:39.102Z,73.24
2022-10-04T08:08:37.745Z,72.17
2022-10-04T08:11:24.728Z,72.02
2022-10-04T08:14:04.698Z,70.28
2022-10-04T08:16:38.192Z,69.06
2022-10-04T08:19:40.037Z,68.37
2022-10-04T08:22:23.713Z,66.64
2022-10-04T08:25:08.835Z,65.81
2022-10-04T08:28:18.386Z,65.34
2022-10-04T08:31:21.510Z,60.78
2022-10-04T08:34:07.340Z,59.46
2022-10-04T08:36:50.315Z,58.79
2022-10-04T08:39:43.304Z,56.65
2022-10-04T08:42:56.194Z,56.32
2022-10-04T08:46:14.134Z,56.08
2022-10-04T08:49:13.314Z,55.45
2022-10-04T08:52:25.156Z,54.31
2022-10-04T08:55:49.075Z,54.19
2022-10-04T08:58:59.773Z,54.16
2022-10-04T09:02:02.413Z,54.52
2022-10-04T09:05:08.561Z,53.88
2022-10-04T09:08:28.131Z,57.20
2022-10-04T09:11:31.611Z,55.26
2022-10-04T09:14:27.802Z,57.66
2022-10-04T09:17:22.244Z,57.66
2022-10-04T09:20:26.304Z,57.93
2022-10-04T09:23:07.240Z,56.38
2022-10-04T09:25:58.685Z,58.00
2022-10-04T09:29:11.379Z,57.14
2022-10-04T09:32:26.499Z,56.91
2022-10-04T09:35:40.063Z,55.64
2022-10-04T09:39:28.451Z,56.36
2022-10-04T09:42:15.207Z,53.92
2022-10-04T09:45:20.260Z,53.04
2022-10-04T09:48:14.513Z,53.14
2022-10-04T09:51:29.619Z,50.82
2022-10-04T09:54:51.096Z,51.19
2022-10-04T09:57:33.502Z,49.76
2022-10-04T10:00:23.497Z,47.98
2022-10-04T10:03:30.451Z,46.36
2022-10-04T10:06:46.595Z,45.76
2022-10-04T10:10:02.542Z,47.05
2022-10-04T10:13:16.066Z,43.42
2022-10-04T10:16:01.331Z,43.31
2022-10-04T10:18:48.494Z,43.55
2022-10-04T10:21:38.337Z,43.41
2022-10-04T10:25:03.632Z,42.00
2022-10-04T10:27:54.212Z,43.14
2022-10-04T10:30:31.137Z,41.50
2022-10-04T10:33:41.006Z,40.12
2022-10-04T10:36:44.303Z,41.48
2022-10-04T10:39:54.372Z,40.87
2022-10-04T10:42:55.464Z,39.33
2022-10-04T10:45:45.782Z,39.68
2022-10-04T10:48:22.685Z,38.06
2022-10-04T10:51:03.562Z,39.24
2022-10-04T10:54:38.728Z,38.23
2022-10-04T10:57:34.059Z,37.66
2022-10-04T11:00:20.438Z,38.26
2022-10-04T11:03:36.419Z,37.69
2022-10-04T11:07:18.082Z,38.19
2022-10-04T11:10:33.219Z,38.34
2022-10-04T11:13:37.312Z,38.86
2022-10-04T11:17:03.905Z,38.45
2022-10-04T11:20:35.049Z,38.62
2022-10-04T11:23:43.067Z,38.29
2022-10-04T11:26:56.945Z,39.10
2022-10-04T11:29:48.749Z,38.76
2022-10-04T11:33:02.647Z,38.55
2022-10-04T11:36:12.671Z,37.99
2022-10-04T11:39:02.503Z,37.29
2022-10-04T11:41:51.194Z,37.37
2022-10-04T11:45:06.395Z,38.27
2022-10-04T11:48:01.271Z,39.08
2022-10-04T11:50:49.097Z,39.79
2022-10-04T11:54:03.452Z,39.49
2022-10-04T11:57:01.554Z,39.28
2022-10-04T11:59:47.586Z,40.49
2022-10-04T12:02:46.267Z,41.61
2022-10-04T12:06:03.894Z,41.08
2022-10-04T12:08:56.914Z,41.53
2022-10-04T12:12:37.568Z,42.75
2022-10-04T12:15:44.969Z,43.56
2022-10-04T12:18:57.544Z,43.22
2022-10-04T12:21:50.615Z,42.75
2022-10-04T12:25:09.650Z,40.17
2022-10-04T12:28:24.415Z,39.82
2022-10-04T12:31:20.062Z,38.63
2022-10-04T12:34:02.801Z,36.55
2022-10-04T12:37:02.655Z,37.18
2022-10-04T12:39:58.019Z,35.13
2022-10-04T12:42:45.487Z,35.36
2022-10-04T12:45:38.082Z,35.08
2022-10-04T12:48:26.988Z,33.16
2022-10-04T12:51:18.173Z,33.58
2022-10-04T12:54:01.163Z,34.05
2022-10-04T12:56:46.387Z,34.67
2022-10-04T12:59:43.415Z,34.60
2022-10-04T13:02:36.634Z,34.87
2022-10-04T13:05:19.361Z,36.99
2022-10-04T13:08:22.254Z,36.29
2022-10-04T13:11:22.359Z,37.73
2022-10-04T13:14:28.046Z,39.72
2022-10-04T13:17:34.592Z,38.25
2022-10-04T13:20:35.740Z,38.21
2022-10-04T13:23:21.483Z,39.24
2022-10-04T13:26:20.846Z,39.08
2022-10-04T13:29:02.757Z,37.29
2022-10-04T13:31:37.918Z,36.61
2022-10-04T13:34:25.662Z,34.05
2022-10-04T13:37:21.894Z,34.08
2022-10-04T13:40:25.153Z,33.02
2022-10-04T13:43:31.148Z,31.90
2022-10-04T13:46:16.306Z,31.96
2022-10-04T13:49:07.299Z,33.02
2022-10-04T13:52:31.597Z,33.05
2022-10-04T13:55:44.089Z,32.06
2022-10-04T13:58:32.352Z,32.25
2022-10-04T14:01:34.050Z,33.38
2022-10-04T14:04:29.093Z,31.43
2022-10-04T14:07:45.372Z,31.84
2022-10-04T14:10:44.507Z,32.15
2022-10-04T14:13:52.269Z,32.93
2022-10-04T14:17:03.233Z,32.55
2022-10-04T14:20:18.527Z,33.85
2022-10-04T14:23:23.243Z,35.55
2022-10-04T14:26:23.044Z,35.41
2022-10-04T14:29:56.215Z,36.56
2022-10-04T14:33:08.652Z,36.60
2022-10-04T14:35:50.968Z,36.93
2022-10-04T14:39:01.112Z,35.09
2022-10-04T14:42:23.063Z,35.93
2022-10-04T14:45:28.055Z,36.92
2022-10-04T14:48:42.608Z,35.26
2022-10-04T14:51:44.610Z,35.67
2022-10-04T14:54:29.546Z,34.20
2022-10-04T14:57:09.582Z,33.55
2022-10-04T15:00:14.733Z,33.75
2022-10-04T15:03:29.752Z,33.92
2022-10-04T15:06:19.511Z,34.64
2022-10-04T15:09:42.013Z,33.85
2022-10-04T15:13:10.042Z,35.46
2022-10-04T15:15:55.040Z,34.89
2022-10-04T15:18:52.582Z,33.86
2022-10-04T15:21:54.108Z,35.10
2022-10-04T15:24:28.614Z,34.82
2022-10-04T15:27:41.462Z,35.71
2022-10-04T15:30:24.823Z,35.43
2022-10-04T15:33:17.851Z,35.57
2022-10-04T15:36:11.080Z,34.99
2022-10-04T15:38:54.158Z,35.54
2022-10-04T15:41:33.343Z,35.34
2022-10-04T15:44:58.313Z,36.14
2022-10-04T15:47:38.057Z,37.85
2022-10-04T15:50:26.071Z,37.07
2022-10-04T15:53:25.352Z,37.66
2022-10-04T15:56:21.932Z,38.99
2022-10-04T15:59:42.618Z,38.54
2022-10-04T16:02:47.393Z,39.13
2022-10-04T16:05:26.941Z,39.81
2022-10-04T16:08:13.810Z,40.72
2022-10-04T16:11:11.410Z,41.05
2022-10-04T16:14:01.326Z,42.96
2022-10-04T16:16:59.847Z,43.57
2022-10-04T16:19:53.418Z,43.88
2022-10-04T16:22:29.320Z,44.77
2022-10-04T16:25:00.019Z,45.48
2022-10-04T16:27:49.447Z,45.76
2022-10-04T16:30:28.676Z,44.93
2022-10-04T16:33:13.730Z,46.15
2022-10-04T16:35:52.321Z,46.20
2022-10-04T16:38:28.658Z,46.73
2022-10-04T16:41:09.740Z,47.97
2022-10-04T16:43:51.560Z,47.77
2022-10-04T16:46:31.231Z,48.20
2022-10-04T16:49:17.756Z,47.95
2022-10-04T16:52:09.165Z,49.07
2022-10-04T16:55:17.712Z,49.10
2022-10-04T16:58:42.021Z,50.01
2022-10-04T17:02:03.342Z,50.84
2022-10-04T17:05:22.518Z,51.65
2022-10-04T17:08:20.659Z,52.13
2022-10-04T17:11:28.872Z,52.17
2022-10-04T17:14:06.433Z,52.53
2022-10-04T17:16:40.552Z,53.43
2022-10-04T17:19:29.049Z,54.14
2022-10-04T17:22:15.947Z,54.79
2022-10-04T17:25:04.141Z,54.14
2022-10-04T17:27:49.272Z,56.02
2022-10-04T17:30:22.089Z,55.98
2022-10-04T17:33:24.074Z,57.56
2022-10-04T17:36:14.163Z,57.41
2022-10-04T17:38:54.010Z,58.26
2022-10-04T17:41:41.315Z,58.06
2022-10-04T17:44:36.061Z,59.48
2022-10-04T17:47:14.791Z,59.96
2022-10-04T17:50:18.183Z,60.36
2022-10-04T17:53:14.122Z,60.49
2022-10-04T17:55:49.573Z,60.23
2022-10-04T17:58:24.187Z,60.34
2022-10-04T18:01:05.925Z,62.36
2022-10-04T18:03:40.436Z,63.00
2022-10-04T18:06:27.877Z,62.78
2022-10-04T18:09:02.220Z,62.41
2022-10-04T18:11:43.684Z,62.63
2022-10-04T18:14:42.968Z,61.90
2022-10-04T18:17:31.359Z,62.87
2022-10-04T18:20:27.205Z,63.00
2022-10-04T18:23:00.775Z,63.32
2022-10-04T18:25:32.068Z,63.25
2022-10-04T18:28:13.950Z,63.43
2022-10-04T18:31:00.747Z,63.85
2022-10-04T18:33:49.972Z,64.11
2022-10-04T18:36:23.624Z,64.22
2022-10-04T18:39:18.538Z,64.60
2022-10-04T18:42:00.253Z,65.11
2022-10-04T18:44:44.422Z,65.16
2022-10-04T18:47:29.697Z,64.81
2022-10-04T18:50:07.096Z,64.85
2022-10-04T18:52:51.273Z,65.16
2022-10-04T18:55:37.522Z,64.91
2022-10-04T18:58:47.170Z,64.73
2022-10-04T19:02:01.754Z,65.22
2022-10-04T19:04:59.636Z,65.36
2022-10-04T19:07:42.460Z,65.07
2022-10-04T19:10:24.393Z,65.36
2022-10-04T19:13:11.149Z,65.70
2022-10-04T19:16:02.783Z,65.86
2022-10-04T19:18:52.451Z,66.20
2022-10-04T19:21:38.214Z,66.54
2022-10-04T19:24:32.774Z,67.63
2022-10-04T19:27:06.041Z,68.24
2022-10-04T19:29:55.176Z,68.31
2022-10-04T19:32:38.109Z,68.41
2022-10-04T19:35:28.915Z,68.77
2022-10-04T19:38:14.545Z,68.74
2022-10-04T19:40:50.821Z,69.01
2022-10-04T19:43:34.244Z,69.08
2022-10-04T19:46:18.389Z,68.76
2022-10-04T19:48:50.316Z,69.29
2022-10-04T19:51:34.075Z,69.34
2022-10-04T19:54:15.842Z,70.10
2022-10-04T19:56:48.928Z,70.27
2022-10-04T19:59:23.655Z,70.50
2022-10-04T20:01:52.931Z,71.09
2022-10-04T20:04:38.114Z,70.65
2022-10-04T20:07:19.261Z,71.00
2022-10-04T20:09:56.733Z,70.81
2022-10-04T20:12:36.012Z,71.64
2022-10-04T20:15:47.465Z,71.52
2022-10-04T20:19:14.685Z,71.62
2022-10-04T20:21:42.984Z,71.28
2022-10-04T20:24:17.647Z,71.21
2022-10-04T20:26:54.481Z,71.08
2022-10-04T20:30:04.717Z,71.77
2022-10-04T20:33:02.029Z,71.13
2022-10-04T20:36:00.942Z,71.54
2022-10-04T20:38:52.111Z,71.52
2022-10-04T20:42:20.241Z,72.20
2022-10-04T20:44:54.480Z,72.00
2022-10-04T20:47:37.132Z,71.94
2022-10-04T20:50:19.223Z,71.39
2022-10-04T20:52:51.129Z,71.64
2022-10-04T20:55:28.064Z,71.65
2022-10-04T20:58:01.270Z,72.58
2022-10-04T21:00:34.480Z,72.68
2022-10-04T21:03:24.030Z,72.80
2022-10-04T21:06:05.280Z,73.18
2022-10-04T21:08:33.712Z,74.16
2022-10-04T21:11:16.811Z,74.75
2022-10-04T21:14:00.011Z,74.25
2022-10-04T21:16:56.450Z,73.73
2022-10-04T21:19:47.921Z,74.30
2022-10-04T21:22:39.020Z,74.06
2022-10-04T21:25:31.185Z,73.81
2022-10-04T21:28:38.897Z,73.62
2022-10-04T21:31:08.118Z,73.95
2022-10-04T21:33:36.855Z,73.33
2022-10-04T21:36:06.255Z,73.65
2022-10-04T21:38:34.268Z,74.10
2022-10-04T21:41:02.501Z,73.97
2022-10-04T21:43:30.851Z,74.64
2022-10-04T21:45:58.919Z,74.99
2022-10-04T21:48:28.330Z,75.23
2022-10-04T21:50:56.220Z,75.74
2022-10-04T21:53:24.250Z,75.64
2022-10-04T21:55:52.374Z,75.43
2022-10-04T21:58:20.191Z,75.33
2022-10-04T22:00:48.196Z,75.70
2022-10-04T22:03:16.199Z,76.04
2022-10-04T22:05:45.674Z,75.29
2022-10-04T22:08:13.394Z,75.82
2022-10-04T22:10:41.259Z,76.47
2022-10-04T22:13:09.275Z,75.63
2022-10-04T22:15:37.072Z,76.07
2022-10-04T22:18:05.074Z,76.71
2022-10-04T22:20:33.393Z,76.86
2022-10-04T22:23:10.154Z,77.75
2022-10-04T22:25:40.395Z,77.56
2022-10-04T22:28:19.446Z,77.81
2022-10-04T22:30:49.416Z,77.84
2022-10-04T22:33:31.226Z,77.84
2022-10-04T22:36:12.359Z,77.90
2022-10-04T22:38:47.967Z,77.44
2022-10-04T22:41:18.907Z,77.15
2022-10-04T22:43:48.928Z,77.36
2022-10-04T22:46:19.961Z,77.23
2022-10-04T22:48:49.391Z,77.01
2022-10-04T22:51:17.147Z,77.08
2022-10-04T22:53:48.304Z,76.36
2022-10-04T22:56:16.419Z,76.29
2022-10-04T22:58:44.901Z,75.97
2022-10-04T23:01:15.660Z,75.99
2022-10-04T23:03:46.766Z,76.52
2022-10-04T23:06:15.713Z,76.10
2022-10-04T23:08:45.940Z,76.25
2022-10-04T23:11:14.112Z,76.12
2022-10-04T23:13:41.967Z,75.68
2022-10-04T23:16:16.183Z,75.73
2022-10-04T23:18:44.102Z,75.38
2022-10-04T23:21:24.233Z,75.75
2022-10-04T23:23:53.919Z,75.51
2022-10-04T23:26:26.753Z,75.63
2022-10-04T23:28:54.540Z,75.36
2022-10-04T23:31:25.862Z,75.38
2022-10-04T23:33:57.016Z,75.90
2022-10-04T23:36:25.180Z,76.18
2022-10-04T23:39:00.615Z,76.31
2022-10-04T23:41:29.076Z,76.44
2022-10-04T23:43:56.882Z,76.74
2022-10-04T23:46:24.963Z,76.47
2022-10-04T23:48:52.817Z,76.72
2022-10-04T23:51:21.315Z,77.04
2022-10-04T23:53:50.896Z,76.65
2022-10-04T23:56:24.237Z,76.28
2022-10-04T23:58:57.981Z,76.31
